createdAt,value
2023-03-05T00:01:33.341Z,22.05
2023-03-05T00:04:02.967Z,20.73
2023-03-05T00:06:32.079Z,20.33
2023-03-05T00:09:00.367Z,18.83
2023-03-05T00:11:33.693Z,18.45
2023-03-05T00:14:03.771Z,21.40
2023-03-05T00:16:32.350Z,20.58
2023-03-05T00:19:02.067Z,21.52
2023-03-05T00:21:41.729Z,20.70
2023-03-05T00:24:16.870Z,20.48
2023-03-05T00:26:46.214Z,22.30
2023-03-05T00:29:18.695Z,19.95
2023-03-05T00:31:46.760Z,22.65
2023-03-05T00:34:16.814Z,26.08
2023-03-05T00:36:47.319Z,23.48
2023-03-05T00:39:15.480Z,24.38
2023-03-05T00:41:44.020Z,25.40
2023-03-05T00:44:13.167Z,28.08
2023-03-05T00:46:41.330Z,27.13
2023-03-05T00:49:09.118Z,24.70
2023-03-05T00:51:36.832Z,24.77
2023-03-05T00:54:05.581Z,24.95
2023-03-05T00:56:33.796Z,26.35
2023-03-05T00:59:01.806Z,21.63
2023-03-05T01:01:29.663Z,23.08
2023-03-05T01:03:58.416Z,23.02
2023-03-05T01:06:26.252Z,21.05
2023-03-05T01:08:56.701Z,21.40
2023-03-05T01:11:25.198Z,19.13
2023-03-05T01:13:53.036Z,20.38
2023-03-05T01:16:20.977Z,18.05
2023-03-05T01:18:48.914Z,16.80
2023-03-05T01:21:16.678Z,17.35
2023-03-05T01:23:44.472Z,17.92
2023-03-05T01:26:12.288Z,17.73
2023-03-05T01:28:40.946Z,20.08
2023-03-05T01:31:12.512Z,17.13
2023-03-05T01:33:40.405Z,17.30
2023-03-05T01:36:12.660Z,15.63
2023-03-05T01:38:41.329Z,17.58
2023-03-05T01:41:09.813Z,17.42
2023-03-05T01:43:37.800Z,18.10
2023-03-05T01:46:23.919Z,17.08
2023-03-05T01:48:59.472Z,19.27
2023-03-05T01:51:30.961Z,16.00
2023-03-05T01:54:01.425Z,14.93
2023-03-05T01:56:30.031Z,14.75
2023-03-05T01:59:03.715Z,16.30
2023-03-05T02:01:38.790Z,16.63
2023-03-05T02:04:09.491Z,18.48
2023-03-05T02:06:39.079Z,16.42
2023-03-05T02:09:06.810Z,18.65
2023-03-05T02:11:36.320Z,14.77
2023-03-05T02:14:06.611Z,17.20
2023-03-05T02:16:37.316Z,15.80
2023-03-05T02:19:07.775Z,17.17
2023-03-05T02:21:45.301Z,14.80
2023-03-05T02:24:18.976Z,15.35
2023-03-05T02:26:47.757Z,14.13
2023-03-05T02:29:20.151Z,19.38
2023-03-05T02:31:48.033Z,16.35
2023-03-05T02:34:16.007Z,18.60
2023-03-05T02:36:43.822Z,20.90
2023-03-05T02:39:12.974Z,17.13
2023-03-05T02:41:40.725Z,17.80
2023-03-05T02:44:09.393Z,16.17
2023-03-05T02:46:37.122Z,16.42
2023-03-05T02:49:05.598Z,16.60
2023-03-05T02:51:33.360Z,19.17
2023-03-05T02:54:01.160Z,17.33
2023-03-05T02:56:30.214Z,16.50
2023-03-05T02:58:58.023Z,16.75
2023-03-05T03:01:28.572Z,18.75
2023-03-05T03:03:57.011Z,18.27
2023-03-05T03:06:24.628Z,17.50
2023-03-05T03:08:52.452Z,17.83
2023-03-05T03:11:21.563Z,18.15
2023-03-05T03:13:49.370Z,18.27
2023-03-05T03:16:18.321Z,17.10
2023-03-05T03:18:47.705Z,17.10
2023-03-05T03:21:25.377Z,17.65
2023-03-05T03:23:53.366Z,17.23
2023-03-05T03:26:21.205Z,18.98
2023-03-05T03:28:49.222Z,19.80
2023-03-05T03:31:17.245Z,19.35
2023-03-05T03:33:45.193Z,17.75
2023-03-05T03:36:13.018Z,18.38
2023-03-05T03:38:40.783Z,19.02
2023-03-05T03:41:09.761Z,17.27
2023-03-05T03:43:37.816Z,16.67
2023-03-05T03:46:07.324Z,17.92
2023-03-05T03:48:36.182Z,17.50
2023-03-05T03:51:05.759Z,18.10
2023-03-05T03:53:33.678Z,16.75
2023-03-05T03:56:01.644Z,19.38
2023-03-05T03:58:29.830Z,19.10
2023-03-05T04:00:57.642Z,18.02
2023-03-05T04:03:25.564Z,17.02
2023-03-05T04:05:53.441Z,16.75
2023-03-05T04:08:21.121Z,19.35
2023-03-05T04:10:49.095Z,18.30
2023-03-05T04:13:16.808Z,20.38
2023-03-05T04:15:44.779Z,19.17
2023-03-05T04:18:12.692Z,19.85
2023-03-05T04:20:40.414Z,18.73
2023-03-05T04:23:09.236Z,19.30
2023-03-05T04:25:36.995Z,21.17
2023-03-05T04:28:04.965Z,18.80
2023-03-05T04:30:33.505Z,20.02
2023-03-05T04:33:01.402Z,17.77
2023-03-05T04:35:29.207Z,18.75
2023-03-05T04:37:56.955Z,18.30
2023-03-05T04:40:24.728Z,17.98
2023-03-05T04:42:52.468Z,16.23
2023-03-05T04:45:20.217Z,18.05
2023-03-05T04:47:48.164Z,20.02
2023-03-05T04:50:16.366Z,18.60
2023-03-05T04:52:45.532Z,17.17
2023-03-05T04:55:15.227Z,17.42
2023-03-05T04:57:44.824Z,23.23
2023-03-05T05:00:15.500Z,19.92
2023-03-05T05:02:45.764Z,20.33
2023-03-05T05:05:17.128Z,18.05
2023-03-05T05:07:45.660Z,18.90
2023-03-05T05:10:15.212Z,18.25
2023-03-05T05:12:43.066Z,18.25
2023-03-05T05:15:12.353Z,17.88
2023-03-05T05:17:40.104Z,19.45
2023-03-05T05:20:11.125Z,17.92
2023-03-05T05:22:38.883Z,19.85
2023-03-05T05:25:06.667Z,18.42
2023-03-05T05:27:34.907Z,18.38
2023-03-05T05:30:04.318Z,19.35
2023-03-05T05:32:32.936Z,20.40
2023-03-05T05:35:00.898Z,18.80
2023-03-05T05:37:30.247Z,18.75
2023-03-05T05:39:58.389Z,18.40
2023-03-05T05:42:26.318Z,20.70
2023-03-05T05:44:55.665Z,18.85
2023-03-05T05:47:23.425Z,23.35
2023-03-05T05:49:51.394Z,19.63
2023-03-05T05:52:19.211Z,18.77
2023-03-05T05:54:47.431Z,18.83
2023-03-05T05:57:15.801Z,19.67
2023-03-05T05:59:43.453Z,19.75
2023-03-05T06:02:12.075Z,20.08
2023-03-05T06:04:40.530Z,21.02
2023-03-05T06:07:08.903Z,19.15
2023-03-05T06:09:38.144Z,21.95
2023-03-05T06:12:06.971Z,21.38
2023-03-05T06:14:35.895Z,19.83
2023-03-05T06:17:03.648Z,20.45
2023-03-05T06:19:31.386Z,22.73
2023-03-05T06:21:59.255Z,20.42
2023-03-05T06:24:27.211Z,22.98
2023-03-05T06:26:56.559Z,19.10
2023-03-05T06:29:24.456Z,19.52
2023-03-05T06:31:52.285Z,23.75
2023-03-05T06:34:20.060Z,23.13
2023-03-05T06:36:47.882Z,21.13
2023-03-05T06:39:15.648Z,18.17
2023-03-05T06:41:44.766Z,19.77
2023-03-05T06:44:12.669Z,21.52
2023-03-05T06:46:40.673Z,25.30
2023-03-05T06:49:09.789Z,25.02
2023-03-05T06:51:39.805Z,26.70
2023-03-05T06:54:11.124Z,27.10
2023-03-05T06:56:41.906Z,25.88
2023-03-05T06:59:11.440Z,26.50
2023-03-05T07:01:39.325Z,26.20
2023-03-05T07:04:07.324Z,25.30
2023-03-05T07:06:38.465Z,25.52
2023-03-05T07:09:07.442Z,25.40
2023-03-05T07:11:35.531Z,27.08
2023-03-05T07:14:04.340Z,26.55
2023-03-05T07:16:34.404Z,24.63
2023-03-05T07:19:04.388Z,23.75
2023-03-05T07:21:34.268Z,25.98
2023-03-05T07:24:04.504Z,25.48
2023-03-05T07:26:35.932Z,27.00
2023-03-05T07:29:04.438Z,27.48
2023-03-05T07:31:32.981Z,26.85
2023-03-05T07:34:03.532Z,27.98
2023-03-05T07:36:31.967Z,22.20
2023-03-05T07:38:59.953Z,27.92
2023-03-05T07:41:27.962Z,25.38
2023-03-05T07:43:56.276Z,27.92
2023-03-05T07:46:30.315Z,28.10
2023-03-05T07:49:00.155Z,22.40
2023-03-05T07:51:28.847Z,23.30
2023-03-05T07:53:58.717Z,23.60
2023-03-05T07:56:32.169Z,22.83
2023-03-05T07:59:01.082Z,24.98
2023-03-05T08:01:32.624Z,21.30
2023-03-05T08:04:00.383Z,19.27
2023-03-05T08:06:28.241Z,25.17
2023-03-05T08:08:56.118Z,22.58
2023-03-05T08:11:24.293Z,20.77
2023-03-05T08:13:52.146Z,22.63
2023-03-05T08:16:21.881Z,21.13
2023-03-05T08:18:49.741Z,26.77
2023-03-05T08:21:20.715Z,21.30
2023-03-05T08:23:48.871Z,21.42
2023-03-05T08:26:21.278Z,23.23
2023-03-05T08:28:50.364Z,24.45
2023-03-05T08:31:21.607Z,22.85
2023-03-05T08:33:53.743Z,24.48
2023-03-05T08:36:23.113Z,24.55
2023-03-05T08:38:51.408Z,25.88
2023-03-05T08:41:19.918Z,27.02
2023-03-05T08:43:49.325Z,28.40
2023-03-05T08:46:17.684Z,23.60
2023-03-05T08:48:45.473Z,21.60
2023-03-05T08:51:16.084Z,23.30
2023-03-05T08:53:45.436Z,22.40
2023-03-05T08:56:14.568Z,24.42
2023-03-05T08:58:42.982Z,22.67
2023-03-05T09:01:11.094Z,20.65
2023-03-05T09:03:39.430Z,19.60
2023-03-05T09:06:10.144Z,16.70
2023-03-05T09:08:38.164Z,17.15
2023-03-05T09:11:08.969Z,18.75
2023-03-05T09:13:36.772Z,19.73
2023-03-05T09:16:07.320Z,18.65
2023-03-05T09:18:37.037Z,16.52
2023-03-05T09:21:06.198Z,16.63
2023-03-05T09:23:34.736Z,18.60
2023-03-05T09:26:05.610Z,16.15
2023-03-05T09:28:35.482Z,16.10
2023-03-05T09:31:04.933Z,19.75
2023-03-05T09:33:35.015Z,18.77
2023-03-05T09:36:03.872Z,20.85
2023-03-05T09:38:32.455Z,18.17
2023-03-05T09:41:19.295Z,17.67
2023-03-05T09:44:12.211Z,18.95
2023-03-05T09:47:02.664Z,18.60
2023-03-05T09:49:57.785Z,17.50
2023-03-05T09:52:57.985Z,15.75
2023-03-05T09:55:41.138Z,14.02
2023-03-05T09:58:16.717Z,17.98
2023-03-05T10:00:50.026Z,15.52
2023-03-05T10:03:30.543Z,15.18
2023-03-05T10:06:15.533Z,14.93
2023-03-05T10:08:53.586Z,16.83
2023-03-05T10:11:30.522Z,15.07
2023-03-05T10:13:58.730Z,19.45
2023-03-05T10:16:54.476Z,20.08
2023-03-05T10:19:46.526Z,18.88
2023-03-05T10:22:22.923Z,23.38
2023-03-05T10:25:24.258Z,21.75
2023-03-05T10:28:02.131Z,22.33
2023-03-05T10:31:12.046Z,19.20
2023-03-05T10:33:53.623Z,20.38
2023-03-05T10:36:46.126Z,17.23
2023-03-05T10:39:42.612Z,18.05
2023-03-05T10:42:40.221Z,16.05
2023-03-05T10:45:29.338Z,14.13
2023-03-05T10:48:14.300Z,14.55
2023-03-05T10:50:54.378Z,16.10
2023-03-05T10:53:48.094Z,14.85
2023-03-05T10:56:18.983Z,16.92
2023-03-05T10:58:55.160Z,18.52
2023-03-05T11:04:32.563Z,21.55
2023-03-05T11:07:23.189Z,24.75
2023-03-05T11:10:00.088Z,18.95
2023-03-05T11:12:31.988Z,17.63
2023-03-05T11:15:26.046Z,17.40
2023-03-05T11:18:22.373Z,18.88
2023-03-05T11:20:51.279Z,19.75
2023-03-05T11:23:21.014Z,18.10
2023-03-05T11:25:55.033Z,19.23
2023-03-05T11:28:38.390Z,18.02
2023-03-05T11:31:15.807Z,20.52
2023-03-05T11:34:01.192Z,19.23
2023-03-05T11:36:40.896Z,22.50
2023-03-05T11:39:12.178Z,18.85
2023-03-05T11:41:48.176Z,19.65
2023-03-05T11:44:30.442Z,27.80
2023-03-05T11:47:26.715Z,22.45
2023-03-05T11:50:16.187Z,27.80
2023-03-05T11:52:59.186Z,28.83
2023-03-05T11:55:40.350Z,30.98
2023-03-05T11:58:33.159Z,31.80
2023-03-05T12:01:03.836Z,28.77
2023-03-05T12:03:38.883Z,30.75
2023-03-05T12:06:21.263Z,27.25
2023-03-05T12:08:56.470Z,28.50
2023-03-05T12:11:33.219Z,29.50
2023-03-05T12:14:32.234Z,27.00
2023-03-05T12:17:12.075Z,21.13
2023-03-05T12:19:48.539Z,22.80
2023-03-05T12:22:24.329Z,21.93
2023-03-05T12:24:52.520Z,21.95
2023-03-05T12:27:37.194Z,22.52
2023-03-05T12:30:05.618Z,20.60
2023-03-05T12:32:34.074Z,22.65
2023-03-05T12:35:26.011Z,34.85
2023-03-05T12:37:53.726Z,33.90
2023-03-05T12:40:24.623Z,33.47
2023-03-05T12:43:01.356Z,28.90
2023-03-05T12:45:40.495Z,26.75
2023-03-05T12:48:12.760Z,23.45
2023-03-05T12:50:40.428Z,21.85
2023-03-05T12:53:26.325Z,29.17
2023-03-05T12:56:19.468Z,26.75
2023-03-05T12:58:53.914Z,30.27
2023-03-05T13:01:42.700Z,23.13
2023-03-05T13:04:23.731Z,30.98
2023-03-05T13:07:07.626Z,29.85
2023-03-05T13:09:36.634Z,25.05
2023-03-05T13:12:11.123Z,23.80
2023-03-05T13:14:47.684Z,23.88
2023-03-05T13:17:38.259Z,21.08
2023-03-05T13:20:31.508Z,23.50
2023-03-05T13:23:26.778Z,20.75
2023-03-05T13:26:00.748Z,18.75
2023-03-05T13:28:29.608Z,18.35
2023-03-05T13:31:04.999Z,20.05
2023-03-05T13:33:35.947Z,19.70
2023-03-05T13:36:05.356Z,19.88
2023-03-05T13:38:40.511Z,18.13
2023-03-05T13:41:11.318Z,17.98
2023-03-05T13:43:44.689Z,21.35
2023-03-05T13:46:13.115Z,26.17
2023-03-05T13:48:41.025Z,23.63
2023-03-05T13:51:09.952Z,23.90
2023-03-05T13:53:37.925Z,24.65
2023-03-05T13:56:08.577Z,21.60
2023-03-05T13:58:55.016Z,21.15
2023-03-05T14:01:50.946Z,20.73
2023-03-05T14:04:26.272Z,20.48
2023-03-05T14:07:01.778Z,17.67
2023-03-05T14:09:38.767Z,19.30
2023-03-05T14:12:30.529Z,16.27
2023-03-05T14:14:59.844Z,14.93
2023-03-05T14:17:31.179Z,16.63
2023-03-05T14:20:14.748Z,16.90
2023-03-05T14:22:45.513Z,17.50
2023-03-05T14:25:38.885Z,16.85
2023-03-05T14:28:18.775Z,17.70
2023-03-05T14:30:53.052Z,20.55
2023-03-05T14:33:27.616Z,15.40
2023-03-05T14:35:57.891Z,17.05
2023-03-05T14:38:30.363Z,15.75
2023-03-05T14:40:58.462Z,15.88
2023-03-05T14:43:26.175Z,13.85
2023-03-05T14:45:54.093Z,15.30
2023-03-05T14:48:21.880Z,19.38
2023-03-05T14:50:56.333Z,16.30
2023-03-05T14:53:27.494Z,16.58
2023-03-05T14:55:59.410Z,16.60
2023-03-05T14:58:32.444Z,18.70
2023-03-05T15:01:00.462Z,14.05
2023-03-05T15:03:28.314Z,14.38
2023-03-05T15:05:58.844Z,15.07
2023-03-05T15:08:30.027Z,14.50
2023-03-05T15:10:58.763Z,14.18
2023-03-05T15:13:27.340Z,15.10
2023-03-05T15:15:55.507Z,13.35
2023-03-05T15:18:24.064Z,14.88
2023-03-05T15:20:53.357Z,15.75
2023-03-05T15:23:21.549Z,14.13
2023-03-05T15:25:50.178Z,14.65
2023-03-05T15:28:18.479Z,14.98
2023-03-05T15:30:47.367Z,13.65
2023-03-05T15:33:18.327Z,11.75
2023-03-05T15:35:46.296Z,13.60
2023-03-05T15:38:15.546Z,12.35
2023-03-05T15:40:44.297Z,13.70
2023-03-05T15:43:12.078Z,15.82
2023-03-05T15:45:40.009Z,15.70
2023-03-05T15:48:08.262Z,13.70
2023-03-05T15:50:36.207Z,15.40
2023-03-05T15:53:04.019Z,15.27
2023-03-05T15:55:31.610Z,13.77
2023-03-05T15:57:59.571Z,12.55
2023-03-05T16:00:30.893Z,11.77
2023-03-05T16:02:58.768Z,10.85
2023-03-05T16:05:26.944Z,11.32
2023-03-05T16:07:55.908Z,13.82
2023-03-05T16:10:26.881Z,12.05
2023-03-05T16:13:02.441Z,10.15
2023-03-05T16:15:33.066Z,10.85
2023-03-05T16:18:05.107Z,10.02
2023-03-05T16:20:36.472Z,11.45
2023-03-05T16:23:05.062Z,10.07
2023-03-05T16:25:32.988Z,8.50
2023-03-05T16:28:00.726Z,8.20
2023-03-05T16:30:28.782Z,7.72
2023-03-05T16:32:56.582Z,8.82
2023-03-05T16:35:24.525Z,6.82
2023-03-05T16:37:52.513Z,6.78
2023-03-05T16:40:20.340Z,7.13
2023-03-05T16:42:48.177Z,9.80
2023-03-05T16:45:15.775Z,9.07
2023-03-05T16:47:43.526Z,9.77
2023-03-05T16:50:12.274Z,8.80
2023-03-05T16:52:40.040Z,7.97
2023-03-05T16:55:08.361Z,8.65
2023-03-05T16:57:38.904Z,9.55
2023-03-05T17:00:09.261Z,9.90
2023-03-05T17:02:36.976Z,12.13
2023-03-05T17:05:05.148Z,9.60
2023-03-05T17:07:32.876Z,6.85
2023-03-05T17:10:00.669Z,7.90
2023-03-05T17:12:28.407Z,8.95
2023-03-05T17:14:56.200Z,6.78
2023-03-05T17:17:24.439Z,8.05
2023-03-05T17:19:52.445Z,8.90
2023-03-05T17:22:20.547Z,8.65
2023-03-05T17:24:48.670Z,7.70
2023-03-05T17:27:18.900Z,8.48
2023-03-05T17:29:46.677Z,6.85
2023-03-05T17:32:14.901Z,7.13
2023-03-05T17:34:43.550Z,6.43
2023-03-05T17:37:12.642Z,7.88
2023-03-05T17:39:40.406Z,6.15
2023-03-05T17:42:08.258Z,6.72
2023-03-05T17:44:36.041Z,6.65
2023-03-05T17:47:04.284Z,8.07
2023-03-05T17:49:31.999Z,7.60
2023-03-05T17:52:00.118Z,7.25
2023-03-05T17:54:28.265Z,8.35
2023-03-05T17:56:57.114Z,6.85
2023-03-05T17:59:25.723Z,9.48
2023-03-05T18:01:53.494Z,8.07
2023-03-05T18:04:21.718Z,6.88
2023-03-05T18:06:49.587Z,8.15
2023-03-05T18:09:17.739Z,8.88
2023-03-05T18:11:45.520Z,6.75
2023-03-05T18:14:15.796Z,7.25
2023-03-05T18:16:45.402Z,9.20
2023-03-05T18:19:13.253Z,7.43
2023-03-05T18:21:42.020Z,12.48
2023-03-05T18:24:10.109Z,7.55
2023-03-05T18:26:37.819Z,9.45
2023-03-05T18:29:05.700Z,9.55
2023-03-05T18:31:33.351Z,13.77
2023-03-05T18:34:01.430Z,11.18
2023-03-05T18:36:29.122Z,9.23
2023-03-05T18:38:56.956Z,10.93
2023-03-05T18:41:28.002Z,8.65
2023-03-05T18:43:56.083Z,9.45
2023-03-05T18:46:24.134Z,11.30
2023-03-05T18:48:51.784Z,11.38
2023-03-05T18:51:21.758Z,10.80
2023-03-05T18:53:51.892Z,8.00
2023-03-05T18:56:19.549Z,11.68
2023-03-05T18:58:47.965Z,8.52
2023-03-05T19:01:17.757Z,9.52
2023-03-05T19:03:47.150Z,14.52
2023-03-05T19:06:16.228Z,11.68
2023-03-05T19:08:44.917Z,10.23
2023-03-05T19:11:21.181Z,12.55
2023-03-05T19:13:51.235Z,9.90
2023-03-05T19:16:22.015Z,12.40
2023-03-05T19:19:13.437Z,8.25
2023-03-05T19:21:42.765Z,12.27
2023-03-05T19:24:11.657Z,8.13
2023-03-05T19:26:40.579Z,11.20
2023-03-05T19:29:09.216Z,7.57
2023-03-05T19:31:37.634Z,10.43
2023-03-05T19:34:06.056Z,10.15
2023-03-05T19:36:35.482Z,12.50
2023-03-05T19:39:05.861Z,10.20
2023-03-05T19:41:34.407Z,8.40
2023-03-05T19:44:04.048Z,9.40
2023-03-05T19:46:32.561Z,12.02
2023-03-05T19:49:00.824Z,9.10
2023-03-05T19:51:29.381Z,11.57
2023-03-05T19:53:57.261Z,9.32
2023-03-05T19:56:25.365Z,8.60
2023-03-05T19:58:53.114Z,7.60
2023-03-05T20:01:27.303Z,9.93
2023-03-05T20:03:57.405Z,11.65
2023-03-05T20:06:26.536Z,10.13
2023-03-05T20:08:55.332Z,9.00
2023-03-05T20:11:24.032Z,10.10
2023-03-05T20:13:53.820Z,13.18
2023-03-05T20:16:24.254Z,9.68
2023-03-05T20:18:54.969Z,9.65
2023-03-05T20:21:28.837Z,9.73
2023-03-05T20:23:59.818Z,9.85
2023-03-05T20:26:28.196Z,10.00
2023-03-05T20:28:57.597Z,8.27
2023-03-05T20:31:27.392Z,11.77
2023-03-05T20:33:56.455Z,9.23
2023-03-05T20:36:24.648Z,9.60
2023-03-05T20:38:52.356Z,9.05
2023-03-05T20:41:23.478Z,11.23
2023-03-05T20:43:52.247Z,9.50
2023-03-05T20:46:29.190Z,11.48
2023-03-05T20:48:59.381Z,12.45
2023-03-05T20:51:31.837Z,9.60
2023-03-05T20:54:04.215Z,8.00
2023-03-05T20:56:33.912Z,9.43
2023-03-05T20:59:05.174Z,9.07
2023-03-05T21:01:35.541Z,8.65
2023-03-05T21:04:04.254Z,8.75
2023-03-05T21:06:33.643Z,10.43
2023-03-05T21:09:01.770Z,8.27
2023-03-05T21:11:29.567Z,9.30
2023-03-05T21:13:57.443Z,9.25
2023-03-05T21:16:27.521Z,11.13
2023-03-05T21:18:57.376Z,7.45
2023-03-05T21:21:25.730Z,8.38
2023-03-05T21:23:55.671Z,8.63
2023-03-05T21:26:23.433Z,8.77
2023-03-05T21:28:51.253Z,8.50
2023-03-05T21:31:21.577Z,10.30
2023-03-05T21:33:51.292Z,9.30
2023-03-05T21:36:19.449Z,10.93
2023-03-05T21:38:48.707Z,11.38
2023-03-05T21:41:18.245Z,9.88
2023-03-05T21:43:46.657Z,12.13
2023-03-05T21:46:14.700Z,8.68
2023-03-05T21:48:42.565Z,9.15
2023-03-05T21:51:39.461Z,10.70
2023-03-05T21:54:28.974Z,11.13
2023-03-05T21:56:56.921Z,10.00
2023-03-05T21:59:24.882Z,11.00
2023-03-05T22:01:52.721Z,10.07
2023-03-05T22:04:20.402Z,10.48
2023-03-05T22:06:48.425Z,10.20
2023-03-05T22:09:16.451Z,9.93
2023-03-05T22:11:44.456Z,10.82
2023-03-05T22:14:12.145Z,10.02
2023-03-05T22:16:40.071Z,10.38
2023-03-05T22:19:07.904Z,11.70
2023-03-05T22:21:35.612Z,10.85
2023-03-05T22:24:04.423Z,14.18
2023-03-05T22:26:38.415Z,15.13
2023-03-05T22:29:08.753Z,17.75
2023-03-05T22:31:36.451Z,14.63
2023-03-05T22:34:04.629Z,12.90
2023-03-05T22:36:32.621Z,11.38
2023-03-05T22:39:00.506Z,12.15
2023-03-05T22:41:28.269Z,12.18
2023-03-05T22:43:56.111Z,10.20
2023-03-05T22:46:26.576Z,11.75
2023-03-05T22:48:54.448Z,11.88
2023-03-05T22:51:22.355Z,11.85
2023-03-05T22:53:50.061Z,12.02
2023-03-05T22:56:20.525Z,14.43
2023-03-05T22:58:49.124Z,10.38
2023-03-05T23:01:22.640Z,10.40
2023-03-05T23:04:49.606Z,11.45
2023-03-05T23:07:23.195Z,12.48
2023-03-05T23:10:07.223Z,9.65
2023-03-05T23:12:38.302Z,14.85
2023-03-05T23:15:10.318Z,10.70
2023-03-05T23:17:38.301Z,10.63
2023-03-05T23:20:09.716Z,11.82
2023-03-05T23:22:39.632Z,10.60
2023-03-05T23:25:07.991Z,10.93
2023-03-05T23:27:36.298Z,10.30
2023-03-05T23:30:16.427Z,10.98
2023-03-05T23:33:05.383Z,9.90
2023-03-05T23:35:36.463Z,10.02
2023-03-05T23:38:08.435Z,9.77
2023-03-05T23:40:40.220Z,10.05
2023-03-05T23:43:08.452Z,11.65
2023-03-05T23:45:36.832Z,11.48
2023-03-05T23:48:04.930Z,8.77
2023-03-05T23:50:35.276Z,9.38
2023-03-05T23:53:04.661Z,8.65
2023-03-05T23:55:40.045Z,12.32
2023-03-05T23:58:08.337Z,10.93
